createdAt,value
2023-11-26T00:00:35.149Z,2.53
2023-11-26T00:03:02.020Z,2.88
2023-11-26T00:05:29.192Z,2.72
2023-11-26T00:07:55.712Z,2.58
2023-11-26T00:10:22.213Z,3.83
2023-11-26T00:12:48.704Z,2.42
2023-11-26T00:15:15.228Z,2.58
2023-11-26T00:17:41.896Z,2.60
2023-11-26T00:20:08.528Z,2.70
2023-11-26T00:22:35.172Z,3.08
2023-11-26T00:25:01.684Z,3.22
2023-11-26T00:27:28.166Z,2.85
2023-11-26T00:29:55.476Z,2.50
2023-11-26T00:32:22.076Z,2.70
2023-11-26T00:34:49.249Z,3.60
2023-11-26T00:37:15.941Z,2.58
2023-11-26T00:39:42.527Z,2.88
2023-11-26T00:42:08.994Z,2.72
2023-11-26T00:44:36.531Z,2.90
2023-11-26T00:47:09.113Z,2.40
2023-11-26T00:49:35.742Z,2.92
2023-11-26T00:52:02.193Z,2.60
2023-11-26T00:54:28.650Z,2.75
2023-11-26T00:56:55.123Z,3.17
2023-11-26T00:59:21.624Z,2.75
2023-11-26T01:01:48.848Z,2.55
2023-11-26T01:04:15.276Z,2.80
2023-11-26T01:06:42.747Z,2.13
2023-11-26T01:09:09.221Z,3.00
2023-11-26T01:11:36.420Z,3.00
2023-11-26T01:14:02.982Z,2.78
2023-11-26T01:16:29.777Z,3.25
2023-11-26T01:18:56.460Z,3.45
2023-11-26T01:21:23.293Z,3.28
2023-11-26T01:23:49.902Z,3.35
2023-11-26T01:26:17.075Z,3.25
2023-11-26T01:28:43.550Z,3.22
2023-11-26T01:31:10.137Z,3.53
2023-11-26T01:33:36.681Z,3.70
2023-11-26T01:36:03.230Z,3.25
2023-11-26T01:38:29.774Z,3.38
2023-11-26T01:40:56.290Z,3.95
2023-11-26T01:43:22.724Z,3.75
2023-11-26T01:45:49.236Z,4.07
2023-11-26T01:48:15.641Z,2.85
2023-11-26T01:50:42.455Z,4.45
2023-11-26T01:53:08.952Z,3.20
2023-11-26T01:55:35.492Z,3.80
2023-11-26T01:58:01.989Z,3.35
2023-11-26T02:00:28.891Z,3.00
2023-11-26T02:02:55.510Z,3.45
2023-11-26T02:05:24.660Z,3.33
2023-11-26T02:07:51.403Z,3.40
2023-11-26T02:10:17.884Z,3.03
2023-11-26T02:12:44.321Z,2.50
2023-11-26T02:15:10.788Z,2.55
2023-11-26T02:17:37.311Z,2.17
2023-11-26T02:20:04.039Z,2.10
2023-11-26T02:22:30.770Z,2.00
2023-11-26T02:24:57.611Z,2.20
2023-11-26T02:27:24.217Z,2.08
2023-11-26T02:29:51.698Z,1.80
2023-11-26T02:32:18.242Z,1.77
2023-11-26T02:34:44.728Z,1.80
2023-11-26T02:37:11.676Z,1.50
2023-11-26T02:39:39.016Z,1.50
2023-11-26T02:42:05.928Z,1.52
2023-11-26T02:44:32.644Z,3.13
2023-11-26T02:46:59.322Z,1.33
2023-11-26T02:49:27.236Z,1.10
2023-11-26T02:51:54.069Z,1.17
2023-11-26T02:54:20.620Z,1.75
2023-11-26T02:56:47.177Z,1.58
2023-11-26T02:59:13.795Z,1.60
2023-11-26T03:01:40.898Z,2.40
2023-11-26T03:04:07.461Z,1.33
2023-11-26T03:06:34.200Z,1.80
2023-11-26T03:09:03.357Z,1.45
2023-11-26T03:11:29.850Z,1.40
2023-11-26T03:13:56.500Z,1.77
2023-11-26T03:16:23.245Z,1.50
2023-11-26T03:18:50.095Z,2.45
2023-11-26T03:21:17.092Z,1.20
2023-11-26T03:23:43.634Z,1.10
2023-11-26T03:26:10.251Z,1.35
2023-11-26T03:28:36.907Z,1.60
2023-11-26T03:31:03.648Z,1.50
2023-11-26T03:33:30.181Z,1.33
2023-11-26T03:35:56.716Z,1.40
2023-11-26T03:38:23.200Z,1.40
2023-11-26T03:40:49.742Z,1.90
2023-11-26T03:43:16.269Z,1.27
2023-11-26T03:45:42.716Z,2.03
2023-11-26T03:48:09.611Z,1.35
2023-11-26T03:50:36.169Z,1.42
2023-11-26T03:53:02.755Z,1.20
2023-11-26T03:55:29.252Z,1.30
2023-11-26T03:57:55.789Z,1.60
2023-11-26T04:00:22.256Z,1.50
2023-11-26T04:02:48.949Z,1.67
2023-11-26T04:05:16.008Z,1.60
2023-11-26T04:07:42.494Z,1.35
2023-11-26T04:10:09.304Z,2.65
2023-11-26T04:12:36.152Z,1.40
2023-11-26T04:15:05.087Z,2.88
2023-11-26T04:17:32.496Z,1.77
2023-11-26T04:20:00.222Z,1.50
2023-11-26T04:22:27.493Z,1.60
2023-11-26T04:24:58.247Z,2.42
2023-11-26T04:27:24.803Z,1.63
2023-11-26T04:29:51.338Z,1.58
2023-11-26T04:32:17.962Z,3.80
2023-11-26T04:34:44.413Z,1.58
2023-11-26T04:37:10.924Z,1.88
2023-11-26T04:39:37.710Z,2.90
2023-11-26T04:42:04.337Z,1.80
2023-11-26T04:44:30.787Z,2.63
2023-11-26T04:46:57.410Z,1.50
2023-11-26T04:49:23.864Z,1.48
2023-11-26T04:51:50.219Z,2.30
2023-11-26T04:54:16.632Z,1.58
2023-11-26T04:56:43.423Z,2.35
2023-11-26T04:59:09.870Z,1.40
2023-11-26T05:01:36.648Z,1.60
2023-11-26T05:04:03.512Z,1.10
2023-11-26T05:06:30.046Z,2.15
2023-11-26T05:08:56.538Z,3.78
2023-11-26T05:11:23.088Z,2.00
2023-11-26T05:13:49.557Z,1.60
2023-11-26T05:16:16.070Z,1.42
2023-11-26T05:18:44.688Z,1.70
2023-11-26T05:21:11.174Z,2.05
2023-11-26T05:23:37.653Z,1.70
2023-11-26T05:26:04.261Z,1.40
2023-11-26T05:28:30.943Z,1.73
2023-11-26T05:30:58.066Z,2.25
2023-11-26T05:33:24.616Z,2.03
2023-11-26T05:35:53.460Z,1.92
2023-11-26T05:38:20.630Z,1.23
2023-11-26T05:40:47.180Z,1.60
2023-11-26T05:43:13.740Z,1.60
2023-11-26T05:45:40.317Z,4.75
2023-11-26T05:48:07.296Z,2.10
2023-11-26T05:50:34.000Z,1.50
2023-11-26T05:55:29.391Z,1.50
2023-11-26T05:57:55.808Z,1.35
2023-11-26T06:00:22.396Z,2.70
2023-11-26T06:02:49.054Z,1.83
2023-11-26T06:05:15.753Z,1.40
2023-11-26T06:07:42.189Z,1.95
2023-11-26T06:10:08.611Z,1.60
2023-11-26T06:12:35.266Z,2.65
2023-11-26T06:15:02.475Z,1.65
2023-11-26T06:17:29.145Z,2.20
2023-11-26T06:19:55.894Z,1.98
2023-11-26T06:22:22.579Z,1.33
2023-11-26T06:24:49.245Z,2.55
2023-11-26T06:27:15.828Z,1.35
2023-11-26T06:29:43.891Z,1.05
2023-11-26T06:32:10.750Z,1.42
2023-11-26T06:34:37.325Z,1.00
2023-11-26T06:37:04.993Z,0.90
2023-11-26T06:39:31.686Z,1.42
2023-11-26T06:41:59.155Z,1.42
2023-11-26T06:44:25.642Z,1.10
2023-11-26T06:46:52.230Z,1.15
2023-11-26T06:49:18.721Z,2.28
2023-11-26T06:51:45.262Z,2.15
2023-11-26T06:54:11.992Z,1.42
2023-11-26T06:56:41.095Z,2.08
2023-11-26T06:59:07.567Z,1.27
2023-11-26T07:01:35.142Z,2.35
2023-11-26T07:04:03.358Z,1.30
2023-11-26T07:06:29.990Z,1.58
2023-11-26T07:08:56.581Z,2.55
2023-11-26T07:11:23.140Z,1.55
2023-11-26T07:13:49.700Z,1.30
2023-11-26T07:16:16.114Z,0.90
2023-11-26T07:18:42.610Z,2.13
2023-11-26T07:21:09.095Z,1.50
2023-11-26T07:23:35.887Z,1.45
2023-11-26T07:26:02.358Z,1.33
2023-11-26T07:28:28.822Z,2.00
2023-11-26T07:30:55.293Z,1.85
2023-11-26T07:33:22.164Z,1.10
2023-11-26T07:35:51.209Z,1.20
2023-11-26T07:38:17.855Z,2.15
2023-11-26T07:40:44.739Z,1.13
2023-11-26T07:43:11.310Z,1.33
2023-11-26T07:45:38.924Z,0.90
2023-11-26T07:48:05.509Z,1.23
2023-11-26T07:50:32.405Z,0.80
2023-11-26T07:52:58.872Z,1.20
2023-11-26T07:55:25.370Z,2.08
2023-11-26T07:57:51.937Z,1.20
2023-11-26T08:00:18.520Z,1.30
2023-11-26T08:02:49.974Z,1.10
2023-11-26T08:05:16.794Z,0.90
2023-11-26T08:07:46.860Z,0.98
2023-11-26T08:10:13.823Z,1.65
2023-11-26T08:12:41.240Z,0.70
2023-11-26T08:15:09.833Z,0.90
2023-11-26T08:17:36.749Z,1.13
2023-11-26T08:20:03.446Z,2.38
2023-11-26T08:22:31.016Z,1.65
2023-11-26T08:24:57.446Z,1.85
2023-11-26T08:27:23.940Z,1.00
2023-11-26T08:29:50.549Z,0.98
2023-11-26T08:32:16.945Z,1.10
2023-11-26T08:34:43.392Z,1.15
2023-11-26T08:37:16.049Z,1.23
2023-11-26T08:39:46.641Z,1.25
2023-11-26T08:42:13.338Z,2.65
2023-11-26T08:44:42.563Z,2.55
2023-11-26T08:47:09.408Z,1.13
2023-11-26T08:49:35.928Z,1.30
2023-11-26T08:52:02.404Z,1.38
2023-11-26T08:54:29.250Z,2.83
2023-11-26T08:56:56.291Z,1.10
2023-11-26T08:59:22.837Z,2.33
2023-11-26T09:01:49.663Z,1.35
2023-11-26T09:04:16.288Z,1.73
2023-11-26T09:06:42.995Z,1.45
2023-11-26T09:09:10.308Z,1.45
2023-11-26T09:11:37.050Z,1.50
2023-11-26T09:14:03.527Z,1.52
2023-11-26T09:16:29.976Z,1.98
2023-11-26T09:18:56.446Z,3.65
2023-11-26T09:21:22.977Z,2.47
2023-11-26T09:23:50.534Z,1.98
2023-11-26T09:26:19.579Z,1.58
2023-11-26T09:28:51.328Z,1.60
2023-11-26T09:31:23.840Z,1.40
2023-11-26T09:33:50.562Z,1.95
2023-11-26T09:36:17.584Z,2.40
2023-11-26T09:38:44.490Z,1.95
2023-11-26T09:41:11.089Z,2.28
2023-11-26T09:43:37.550Z,2.05
2023-11-26T09:46:04.172Z,1.33
2023-11-26T09:48:33.055Z,1.88
2023-11-26T09:50:59.472Z,1.30
2023-11-26T09:53:25.922Z,2.15
2023-11-26T09:55:52.640Z,1.20
2023-11-26T09:58:19.112Z,1.20
2023-11-26T10:00:46.792Z,0.80
2023-11-26T10:03:15.961Z,1.27
2023-11-26T10:05:44.028Z,1.95
2023-11-26T10:08:10.707Z,3.47
2023-11-26T10:10:37.201Z,1.58
2023-11-26T10:13:03.989Z,1.75
2023-11-26T10:15:30.698Z,2.25
2023-11-26T10:17:57.506Z,1.25
2023-11-26T10:20:24.196Z,1.33
2023-11-26T10:22:52.830Z,1.10
2023-11-26T10:25:21.259Z,2.28
2023-11-26T10:27:48.124Z,2.17
2023-11-26T10:30:16.057Z,1.15
2023-11-26T10:32:43.883Z,1.23
2023-11-26T10:35:10.872Z,2.63
2023-11-26T10:37:39.706Z,1.00
2023-11-26T10:40:06.435Z,1.90
2023-11-26T10:42:33.668Z,1.77
2023-11-26T10:45:04.613Z,1.88
2023-11-26T10:47:32.080Z,1.45
2023-11-26T10:49:59.427Z,1.42
2023-11-26T10:52:26.268Z,1.60
2023-11-26T10:54:56.809Z,1.00
2023-11-26T10:57:23.591Z,0.60
2023-11-26T10:59:57.609Z,1.00
2023-11-26T11:02:32.537Z,1.33
2023-11-26T11:04:59.184Z,1.00
2023-11-26T11:07:29.835Z,2.65
2023-11-26T11:09:56.485Z,1.17
2023-11-26T11:12:23.981Z,0.73
2023-11-26T11:14:51.461Z,3.13
2023-11-26T11:17:20.215Z,1.80
2023-11-26T11:19:55.291Z,1.00
2023-11-26T11:22:24.512Z,0.90
2023-11-26T11:27:31.788Z,1.58
2023-11-26T11:29:59.221Z,0.70
2023-11-26T11:32:26.714Z,1.02
2023-11-26T11:34:54.635Z,0.98
2023-11-26T11:37:21.951Z,1.33
2023-11-26T11:39:52.987Z,1.60
2023-11-26T11:42:20.382Z,2.05
2023-11-26T11:44:47.104Z,0.90
2023-11-26T11:47:13.922Z,1.92
2023-11-26T11:49:40.571Z,1.13
2023-11-26T11:52:09.962Z,1.73
2023-11-26T11:54:36.926Z,1.00
2023-11-26T11:57:03.416Z,1.15
2023-11-26T11:59:37.791Z,1.45
2023-11-26T12:02:04.542Z,1.60
2023-11-26T12:04:31.310Z,1.63
2023-11-26T12:06:58.347Z,0.80
2023-11-26T12:09:25.055Z,1.10
2023-11-26T12:11:51.564Z,1.08
2023-11-26T12:14:18.393Z,0.80
2023-11-26T12:16:44.906Z,0.90
2023-11-26T12:19:12.489Z,1.42
2023-11-26T12:21:41.409Z,0.98
2023-11-26T12:24:08.620Z,3.08
2023-11-26T12:26:35.153Z,0.77
2023-11-26T12:29:08.741Z,0.73
2023-11-26T12:31:38.014Z,0.68
2023-11-26T12:34:05.716Z,2.47
2023-11-26T12:36:32.385Z,1.88
2023-11-26T12:39:00.156Z,0.60
2023-11-26T12:41:27.292Z,0.65
2023-11-26T12:43:54.172Z,1.67
2023-11-26T12:46:20.668Z,1.65
2023-11-26T12:48:47.308Z,2.17
2023-11-26T12:51:14.113Z,0.50
2023-11-26T12:53:40.640Z,0.93
2023-11-26T12:56:07.316Z,1.70
2023-11-26T12:58:34.525Z,0.85
2023-11-26T13:01:01.039Z,0.70
2023-11-26T13:03:27.827Z,0.70
2023-11-26T13:05:54.348Z,0.85
2023-11-26T13:08:21.704Z,1.70
2023-11-26T13:10:50.146Z,2.28
2023-11-26T13:13:18.093Z,0.80
2023-11-26T13:15:45.038Z,1.00
2023-11-26T13:18:13.996Z,0.50
2023-11-26T13:20:41.123Z,0.70
2023-11-26T13:23:08.523Z,1.02
2023-11-26T13:25:35.171Z,1.33
2023-11-26T13:28:01.777Z,0.90
2023-11-26T13:30:28.915Z,0.80
2023-11-26T13:32:55.692Z,1.23
2023-11-26T13:35:22.662Z,1.02
2023-11-26T13:37:49.042Z,0.98
2023-11-26T13:40:15.803Z,0.65
2023-11-26T13:42:42.291Z,1.92
2023-11-26T13:45:13.401Z,0.90
2023-11-26T13:47:49.884Z,2.80
2023-11-26T13:50:21.206Z,0.70
2023-11-26T13:52:47.973Z,0.80
2023-11-26T13:55:14.916Z,0.80
2023-11-26T13:57:41.453Z,3.42
2023-11-26T14:00:08.091Z,1.50
2023-11-26T14:02:37.333Z,3.72
2023-11-26T14:05:04.724Z,1.95
2023-11-26T14:07:31.473Z,0.90
2023-11-26T14:09:58.028Z,1.10
2023-11-26T14:12:24.794Z,1.40
2023-11-26T14:14:51.247Z,0.60
2023-11-26T14:17:17.683Z,0.70
2023-11-26T14:19:44.115Z,11.55
2023-11-26T14:22:10.537Z,1.13
2023-11-26T14:24:37.479Z,0.82
2023-11-26T14:27:04.176Z,1.02
2023-11-26T14:29:32.357Z,1.08
2023-11-26T14:32:01.257Z,1.25
2023-11-26T14:34:28.075Z,0.95
2023-11-26T14:36:55.254Z,1.08
2023-11-26T14:39:22.796Z,7.10
2023-11-26T14:41:49.710Z,1.20
2023-11-26T14:44:16.311Z,1.27
2023-11-26T14:46:43.135Z,0.70
2023-11-26T14:49:09.661Z,2.60
2023-11-26T14:51:36.155Z,1.38
2023-11-26T14:54:02.760Z,3.38
2023-11-26T14:56:29.198Z,1.80
2023-11-26T14:58:57.248Z,0.77
2023-11-26T15:01:23.994Z,1.75
2023-11-26T15:03:53.991Z,1.10
2023-11-26T15:06:21.394Z,1.90
2023-11-26T15:08:50.462Z,3.20
2023-11-26T15:11:18.039Z,1.85
2023-11-26T15:13:44.551Z,2.03
2023-11-26T15:16:13.979Z,1.27
2023-11-26T15:18:40.489Z,6.55
2023-11-26T15:21:07.325Z,1.10
2023-11-26T15:23:34.911Z,1.15
2023-11-26T15:26:01.352Z,0.80
2023-11-26T15:28:30.173Z,1.70
2023-11-26T15:30:56.726Z,4.28
2023-11-26T15:33:26.856Z,1.20
2023-11-26T15:35:53.617Z,1.52
2023-11-26T15:38:20.363Z,2.28
2023-11-26T15:40:47.476Z,2.05
2023-11-26T15:43:14.223Z,1.80
2023-11-26T15:45:40.775Z,1.30
2023-11-26T15:48:07.298Z,1.52
2023-11-26T15:50:33.756Z,1.05
2023-11-26T15:53:00.465Z,2.50
2023-11-26T15:55:27.202Z,2.78
2023-11-26T15:57:54.169Z,1.38
2023-11-26T16:00:20.920Z,1.10
2023-11-26T16:02:47.623Z,1.85
2023-11-26T16:05:14.442Z,2.20
2023-11-26T16:07:43.780Z,1.20
2023-11-26T16:10:10.523Z,1.08
2023-11-26T16:12:37.480Z,1.23
2023-11-26T16:15:04.208Z,2.05
2023-11-26T16:17:34.492Z,1.30
2023-11-26T16:20:01.720Z,1.40
2023-11-26T16:22:28.352Z,1.92
2023-11-26T16:24:55.093Z,2.53
2023-11-26T16:27:21.548Z,1.40
2023-11-26T16:29:48.238Z,1.40
2023-11-26T16:32:14.864Z,1.67
2023-11-26T16:34:41.972Z,1.33
2023-11-26T16:37:09.560Z,1.30
2023-11-26T16:39:36.204Z,1.88
2023-11-26T16:42:04.184Z,2.58
2023-11-26T16:44:32.759Z,2.33
2023-11-26T16:46:59.324Z,1.90
2023-11-26T16:49:26.367Z,2.63
2023-11-26T16:51:53.120Z,2.15
2023-11-26T16:54:20.482Z,1.58
2023-11-26T16:56:47.595Z,2.47
2023-11-26T16:59:14.460Z,3.53
2023-11-26T17:01:41.542Z,1.65
2023-11-26T17:04:09.744Z,1.90
2023-11-26T17:06:37.226Z,1.75
2023-11-26T17:09:04.022Z,2.08
2023-11-26T17:11:31.026Z,2.25
2023-11-26T17:13:58.256Z,2.92
2023-11-26T17:16:25.658Z,2.85
2023-11-26T17:19:00.409Z,4.45
2023-11-26T17:21:27.421Z,6.32
2023-11-26T17:23:54.464Z,3.60
2023-11-26T17:26:21.651Z,6.10
2023-11-26T17:28:49.773Z,2.70
2023-11-26T17:31:17.116Z,3.35
2023-11-26T17:33:44.555Z,2.25
2023-11-26T17:36:11.701Z,2.42
2023-11-26T17:38:41.247Z,4.88
2023-11-26T17:41:08.629Z,2.00
2023-11-26T17:43:37.671Z,2.90
2023-11-26T17:46:05.970Z,5.72
2023-11-26T17:48:33.757Z,1.83
2023-11-26T17:51:02.118Z,2.00
2023-11-26T17:53:29.470Z,2.33
2023-11-26T17:55:57.334Z,1.58
2023-11-26T17:58:30.180Z,2.03
2023-11-26T18:00:57.823Z,3.63
2023-11-26T18:03:28.097Z,4.07
2023-11-26T18:05:55.468Z,3.35
2023-11-26T18:08:23.353Z,2.67
2023-11-26T18:10:51.344Z,2.50
2023-11-26T18:13:19.788Z,2.17
2023-11-26T18:15:49.405Z,2.33
2023-11-26T18:18:19.997Z,2.40
2023-11-26T18:20:47.625Z,2.78
2023-11-26T18:23:16.565Z,2.47
2023-11-26T18:25:44.330Z,6.30
2023-11-26T18:28:13.859Z,3.63
2023-11-26T18:30:41.513Z,4.60
2023-11-26T18:33:11.818Z,5.13
2023-11-26T18:35:39.279Z,2.88
2023-11-26T18:38:09.071Z,3.33
2023-11-26T18:40:36.798Z,3.42
2023-11-26T18:43:04.258Z,3.97
2023-11-26T18:45:35.342Z,4.25
2023-11-26T18:48:02.938Z,2.55
2023-11-26T18:50:30.356Z,3.28
2023-11-26T18:52:57.837Z,3.45
2023-11-26T18:55:26.098Z,3.25
2023-11-26T18:57:53.505Z,3.63
2023-11-26T19:00:21.672Z,3.58
2023-11-26T19:02:50.186Z,2.60
2023-11-26T19:05:18.223Z,4.30
2023-11-26T19:07:45.687Z,4.13
2023-11-26T19:10:13.212Z,4.60
2023-11-26T19:12:40.866Z,2.90
2023-11-26T19:15:09.448Z,4.45
2023-11-26T19:17:41.736Z,2.90
2023-11-26T19:20:10.546Z,3.38
2023-11-26T19:22:38.643Z,6.10
2023-11-26T19:25:07.983Z,3.47
2023-11-26T19:27:35.879Z,2.50
2023-11-26T19:30:04.993Z,5.90
2023-11-26T19:32:33.528Z,4.07
2023-11-26T19:35:05.702Z,3.85
2023-11-26T19:37:40.505Z,4.35
2023-11-26T19:40:17.683Z,3.22
2023-11-26T19:42:45.854Z,4.78
2023-11-26T19:45:13.524Z,3.70
2023-11-26T19:47:41.013Z,6.90
2023-11-26T19:50:08.999Z,3.92
2023-11-26T19:52:36.590Z,3.95
2023-11-26T19:55:06.943Z,3.78
2023-11-26T19:57:35.634Z,4.80
2023-11-26T20:00:05.407Z,6.07
2023-11-26T20:02:32.986Z,3.78
2023-11-26T20:05:00.696Z,3.47
2023-11-26T20:07:30.508Z,7.28
2023-11-26T20:10:01.138Z,4.43
2023-11-26T20:15:02.190Z,4.10
2023-11-26T20:17:35.723Z,4.13
2023-11-26T20:20:03.755Z,5.28
2023-11-26T20:22:34.282Z,4.32
2023-11-26T20:25:02.180Z,5.03
2023-11-26T20:27:29.701Z,5.10
2023-11-26T20:29:57.228Z,4.80
2023-11-26T20:32:26.118Z,5.45
2023-11-26T20:34:54.018Z,5.72
2023-11-26T20:37:21.589Z,6.57
2023-11-26T20:39:49.021Z,6.00
2023-11-26T20:42:16.336Z,5.13
2023-11-26T20:44:43.772Z,4.30
2023-11-26T20:47:13.994Z,6.35
2023-11-26T20:49:41.496Z,6.82
2023-11-26T20:52:08.968Z,4.82
2023-11-26T20:54:39.394Z,5.10
2023-11-26T20:57:06.855Z,6.60
2023-11-26T20:59:36.962Z,4.85
2023-11-26T21:02:03.660Z,5.70
2023-11-26T21:04:30.641Z,4.85
2023-11-26T21:06:57.336Z,7.90
2023-11-26T21:09:23.860Z,5.10
2023-11-26T21:11:51.835Z,6.47
2023-11-26T21:14:18.318Z,7.30
2023-11-26T21:16:45.144Z,5.00
2023-11-26T21:19:11.896Z,5.07
2023-11-26T21:21:38.406Z,6.45
2023-11-26T21:24:05.961Z,5.00
2023-11-26T21:26:33.706Z,7.63
2023-11-26T21:29:00.306Z,4.82
2023-11-26T21:31:27.508Z,5.97
2023-11-26T21:33:54.039Z,5.38
2023-11-26T21:36:22.495Z,4.93
2023-11-26T21:38:50.906Z,6.95
2023-11-26T21:41:17.489Z,5.88
2023-11-26T21:43:45.682Z,4.72
2023-11-26T21:46:23.239Z,4.60
2023-11-26T21:48:58.791Z,6.97
2023-11-26T21:54:07.423Z,3.83
2023-11-26T21:56:34.168Z,4.38
2023-11-26T21:59:01.518Z,3.88
2023-11-26T22:01:43.674Z,6.78
2023-11-26T22:04:12.306Z,5.22
2023-11-26T22:06:42.909Z,6.10
2023-11-26T22:09:10.100Z,4.20
2023-11-26T22:11:37.807Z,4.72
2023-11-26T22:14:06.780Z,5.57
2023-11-26T22:19:29.021Z,5.88
2023-11-26T22:27:19.689Z,5.20
2023-11-26T22:29:58.398Z,5.82
2023-11-26T22:35:06.380Z,4.78
2023-11-26T22:45:41.797Z,7.07
2023-11-26T22:48:11.043Z,5.83
2023-11-26T22:50:47.731Z,6.22
2023-11-26T22:53:21.478Z,4.72
2023-11-26T22:55:48.672Z,5.80
2023-11-26T22:58:15.939Z,5.35
2023-11-26T23:00:46.922Z,4.72
2023-11-26T23:03:13.712Z,8.40
2023-11-26T23:05:41.272Z,6.60
2023-11-26T23:08:08.196Z,4.97
2023-11-26T23:10:35.253Z,5.35
2023-11-26T23:13:02.271Z,4.40
2023-11-26T23:15:35.735Z,5.03
2023-11-26T23:18:13.940Z,4.28
2023-11-26T23:20:44.306Z,7.45
2023-11-26T23:23:11.730Z,6.47
2023-11-26T23:28:19.443Z,5.20
2023-11-26T23:30:46.367Z,5.15
2023-11-26T23:33:15.977Z,5.30
2023-11-26T23:35:44.830Z,5.88
2023-11-26T23:38:13.135Z,7.55
2023-11-26T23:40:43.795Z,5.82
2023-11-26T23:43:12.549Z,6.63
2023-11-26T23:45:40.692Z,5.47
2023-11-26T23:48:07.802Z,4.80
2023-11-26T23:50:34.685Z,5.07
2023-11-26T23:53:04.095Z,5.38
2023-11-26T23:55:32.615Z,5.50
2023-11-26T23:57:59.789Z,5.93
